Time;durP1;ratioP1;P1;durP2;ratioP2;P2;SDS_P1;SDS_P2;PMS_P1;PMS_P2;Temp;Humidity;BMP_temperature;BMP_pressure;BME280_temperature;BME280_humidity;BME280_pressure;Samples;Min_cycle;Max_cycle;Signal;HPM_P1;HPM_P2
2022/03/05 00:00:28;;;;;;;97.97;39.25;;;;;;;;;;5039367;28;20037;-81
2022/03/05 00:02:54;;;;;;;89.57;38.78;;;;;;;;;;5040728;28;20044;-81
2022/03/05 00:05:20;;;;;;;87.53;37.50;;;;;;;;;;5041066;28;20021;-81
2022/03/05 00:07:46;;;;;;;86.22;37.60;;;;;;;;;;5041407;28;20053;-81
2022/03/05 00:10:12;;;;;;;101.60;40.25;;;;;;;;;;5042442;28;20057;-81
2022/03/05 00:12:38;;;;;;;102.22;39.97;;;;;;;;;;5025730;28;20362;-81
2022/03/05 00:15:05;;;;;;;96.68;40.15;;;;;;;;;;5041500;28;20038;-79
2022/03/05 00:17:31;;;;;;;99.18;40.28;;;;;;;;;;5038560;28;20046;-80
2022/03/05 00:19:57;;;;;;;111.38;42.03;;;;;;;;;;5038984;28;20053;-82
2022/03/05 00:22:24;;;;;;;101.50;41.13;;;;;;;;;;5024642;28;20057;-81
2022/03/05 00:24:50;;;;;;;96.70;42.72;;;;;;;;;;5023408;28;20095;-82
2022/03/05 00:27:17;;;;;;;96.45;39.58;;;;;;;;;;5022996;28;20411;-82
2022/03/05 00:29:44;;;;;;;92.90;40.75;;;;;;;;;;5038640;28;20053;-82
2022/03/05 00:32:10;;;;;;;102.43;41.50;;;;;;;;;;5038815;28;20072;-82
2022/03/05 00:34:36;;;;;;;107.35;39.72;;;;;;;;;;5023482;28;20041;-82
2022/03/05 00:37:05;;;;;;;96.13;39.20;;;;;;;;;;5023878;28;20056;-83
2022/03/05 00:39:31;;;;;;;99.28;41.40;;;;;;;;;;5024843;28;20033;-83
2022/03/05 00:41:57;;;;;;;93.10;39.10;;;;;;;;;;5026122;28;20052;-81
2022/03/05 00:44:23;;;;;;;97.32;38.70;;;;;;;;;;5026406;28;20042;-82
2022/03/05 00:46:49;;;;;;;93.85;38.38;;;;;;;;;;5046340;28;20079;-81
2022/03/05 00:49:15;;;;;;;101.03;39.83;;;;;;;;;;5063225;28;20040;-81
2022/03/05 00:51:41;;;;;;;95.97;38.70;;;;;;;;;;5045331;28;20103;-81
2022/03/05 00:54:07;;;;;;;100.25;40.08;;;;;;;;;;5045420;28;20444;-80
2022/03/05 00:56:33;;;;;;;93.30;38.83;;;;;;;;;;5045077;28;20105;-80
2022/03/05 00:58:59;;;;;;;94.90;39.10;;;;;;;;;;5044706;28;20414;-81
2022/03/05 01:01:25;;;;;;;103.57;39.85;;;;;;;;;;5079956;28;20052;-79
2022/03/05 01:03:51;;;;;;;100.07;39.28;;;;;;;;;;5065794;28;20036;-82
2022/03/05 01:06:17;;;;;;;104.88;40.70;;;;;;;;;;5045332;28;20028;-81
2022/03/05 01:08:43;;;;;;;100.80;40.80;;;;;;;;;;5045556;28;20040;-80
2022/03/05 01:11:09;;;;;;;106.07;41.38;;;;;;;;;;5061137;28;20379;-81
2022/03/05 01:13:36;;;;;;;104.10;40.83;;;;;;;;;;5045940;28;20047;-80
2022/03/05 01:16:02;;;;;;;104.47;41.25;;;;;;;;;;5045188;28;20058;-80
2022/03/05 01:18:28;;;;;;;100.85;39.47;;;;;;;;;;5046382;28;20041;-84
2022/03/05 01:20:54;;;;;;;92.53;38.28;;;;;;;;;;5088521;28;20033;-82
2022/03/05 01:23:20;;;;;;;90.60;38.45;;;;;;;;;;5055015;28;20036;-80
2022/03/05 01:25:46;;;;;;;103.38;38.75;;;;;;;;;;5070308;28;20079;-80
2022/03/05 01:28:12;;;;;;;98.28;40.03;;;;;;;;;;5067077;28;20059;-80
2022/03/05 01:30:39;;;;;;;105.68;39.05;;;;;;;;;;5072185;28;20036;-80
2022/03/05 01:33:05;;;;;;;103.88;38.88;;;;;;;;;;5074966;28;20060;-81
2022/03/05 01:35:31;;;;;;;99.85;40.05;;;;;;;;;;5075730;28;20094;-81
2022/03/05 01:37:57;;;;;;;99.75;38.78;;;;;;;;;;5073299;28;20067;-81
2022/03/05 01:40:23;;;;;;;94.82;39.05;;;;;;;;;;5050620;28;20036;-84
2022/03/05 01:42:49;;;;;;;96.32;38.83;;;;;;;;;;5080711;28;20070;-81
2022/03/05 01:45:15;;;;;;;100.25;39.08;;;;;;;;;;5062325;28;20059;-83
2022/03/05 01:47:42;;;;;;;92.30;36.72;;;;;;;;;;5045752;28;20037;-83
2022/03/05 01:50:09;;;;;;;98.25;38.45;;;;;;;;;;5064335;28;20045;-82
2022/03/05 01:52:35;;;;;;;101.63;38.33;;;;;;;;;;5044492;28;20144;-77
2022/03/05 01:55:01;;;;;;;97.88;39.60;;;;;;;;;;5058266;28;20032;-76
2022/03/05 01:57:27;;;;;;;97.97;39.08;;;;;;;;;;5059469;28;20052;-81
2022/03/05 01:59:53;;;;;;;104.70;40.30;;;;;;;;;;5045073;28;20132;-80
2022/03/05 02:02:19;;;;;;;96.78;39.97;;;;;;;;;;5079683;28;20064;-80
2022/03/05 02:04:45;;;;;;;109.13;41.25;;;;;;;;;;5062409;28;20406;-82
2022/03/05 02:07:11;;;;;;;106.40;40.40;;;;;;;;;;5081519;28;20052;-81
2022/03/05 02:09:37;;;;;;;104.43;40.30;;;;;;;;;;5087632;28;20040;-80
2022/03/05 02:12:03;;;;;;;98.47;39.63;;;;;;;;;;5063942;28;20347;-80
2022/03/05 02:14:29;;;;;;;97.13;37.75;;;;;;;;;;5064269;28;20433;-77
2022/03/05 02:16:56;;;;;;;96.47;37.85;;;;;;;;;;5040716;28;20051;-76
2022/03/05 02:19:22;;;;;;;103.32;40.20;;;;;;;;;;5057648;28;20032;-76
2022/03/05 02:21:48;;;;;;;104.85;37.53;;;;;;;;;;5058402;28;20036;-76
2022/03/05 02:24:14;;;;;;;97.18;38.20;;;;;;;;;;5059608;28;20041;-76
2022/03/05 02:26:40;;;;;;;95.68;37.35;;;;;;;;;;5043053;28;20054;-78
2022/03/05 02:29:06;;;;;;;101.60;37.60;;;;;;;;;;5060118;28;20116;-76
2022/03/05 02:31:33;;;;;;;88.95;34.03;;;;;;;;;;5058534;28;20455;-77
2022/03/05 02:34:00;;;;;;;92.90;35.53;;;;;;;;;;5058487;28;20052;-77
2022/03/05 02:36:26;;;;;;;87.25;34.50;;;;;;;;;;5041470;28;20047;-77
2022/03/05 02:38:53;;;;;;;90.97;35.75;;;;;;;;;;5041701;28;20445;-78
2022/03/05 02:41:19;;;;;;;92.13;36.08;;;;;;;;;;5041450;28;20094;-77
2022/03/05 02:43:46;;;;;;;94.05;35.80;;;;;;;;;;5057541;28;20060;-76
2022/03/05 02:46:12;;;;;;;92.57;35.05;;;;;;;;;;5040326;28;20060;-77
2022/03/05 02:48:37;;;;;;;94.20;36.30;;;;;;;;;;5075215;28;20044;-77
2022/03/05 02:51:04;;;;;;;96.05;34.83;;;;;;;;;;5075728;28;20041;-76
2022/03/05 02:53:31;;;;;;;91.00;37.45;;;;;;;;;;5062133;28;20048;-77
2022/03/05 02:55:57;;;;;;;93.93;37.53;;;;;;;;;;5079020;28;20123;-77
2022/03/05 02:58:23;;;;;;;93.90;35.95;;;;;;;;;;5045403;28;20115;-77
2022/03/05 03:00:50;;;;;;;98.93;38.05;;;;;;;;;;5045639;28;20499;-77
2022/03/05 03:03:16;;;;;;;96.68;38.47;;;;;;;;;;5062290;28;20146;-77
2022/03/05 03:05:42;;;;;;;101.07;38.13;;;;;;;;;;5061530;28;20048;-77
2022/03/05 03:08:08;;;;;;;98.25;35.80;;;;;;;;;;5060308;28;20032;-77
2022/03/05 03:10:34;;;;;;;94.20;36.85;;;;;;;;;;5044001;28;20040;-76
2022/03/05 03:13:00;;;;;;;95.65;35.97;;;;;;;;;;5044301;28;20119;-76
2022/03/05 03:15:26;;;;;;;96.35;36.40;;;;;;;;;;5060883;28;20044;-76
2022/03/05 03:17:53;;;;;;;103.97;39.97;;;;;;;;;;5043591;28;20037;-76
2022/03/05 03:20:20;;;;;;;93.72;38.30;;;;;;;;;;5045665;28;20037;-80
2022/03/05 03:22:46;;;;;;;93.00;35.63;;;;;;;;;;5049076;28;20040;-80
2022/03/05 03:25:12;;;;;;;96.72;37.17;;;;;;;;;;5049669;28;20070;-81
2022/03/05 03:27:38;;;;;;;95.47;36.67;;;;;;;;;;5061123;28;20040;-80
2022/03/05 03:30:04;;;;;;;92.45;36.67;;;;;;;;;;5078536;28;20040;-80
2022/03/05 03:32:30;;;;;;;96.43;34.58;;;;;;;;;;5096173;28;20068;-80
2022/03/05 03:34:56;;;;;;;94.38;35.25;;;;;;;;;;5054323;28;20040;-76
2022/03/05 03:37:23;;;;;;;91.82;35.50;;;;;;;;;;5044022;28;20462;-75
2022/03/05 03:39:49;;;;;;;97.70;34.63;;;;;;;;;;5043121;28;20036;-75
2022/03/05 03:42:15;;;;;;;93.10;33.13;;;;;;;;;;5060305;28;20036;-76
2022/03/05 03:44:41;;;;;;;85.90;32.70;;;;;;;;;;5059211;28;20048;-76
2022/03/05 03:47:07;;;;;;;87.22;33.42;;;;;;;;;;5063736;28;20048;-80
2022/03/05 03:49:33;;;;;;;93.13;35.13;;;;;;;;;;5063220;28;20075;-81
2022/03/05 03:51:59;;;;;;;89.07;33.88;;;;;;;;;;5063635;28;20513;-81
2022/03/05 03:54:25;;;;;;;86.35;33.45;;;;;;;;;;5063750;28;20040;-80
2022/03/05 03:56:51;;;;;;;89.32;31.70;;;;;;;;;;5063280;28;20103;-79
2022/03/05 03:59:17;;;;;;;83.15;32.53;;;;;;;;;;5063800;28;20075;-79
2022/03/05 04:01:43;;;;;;;84.65;31.17;;;;;;;;;;5082249;28;20079;-81
2022/03/05 04:04:09;;;;;;;85.53;32.08;;;;;;;;;;5064320;28;20032;-81
2022/03/05 04:09:20;;;;;;;75.93;30.85;;;;;;;;;;5061919;28;20044;-76
2022/03/05 04:11:45;;;;;;;84.40;32.65;;;;;;;;;;5077746;28;20036;-76
2022/03/05 04:14:12;;;;;;;84.05;31.70;;;;;;;;;;5042997;28;20032;-76
2022/03/05 04:16:38;;;;;;;82.85;30.73;;;;;;;;;;5043478;28;20460;-77
2022/03/05 04:19:04;;;;;;;88.07;32.13;;;;;;;;;;5045457;28;20036;-80
2022/03/05 04:21:30;;;;;;;86.68;32.72;;;;;;;;;;5057060;28;20037;-82
2022/03/05 04:23:56;;;;;;;87.03;30.30;;;;;;;;;;5065072;28;20407;-80
2022/03/05 04:26:22;;;;;;;97.95;33.85;;;;;;;;;;5047784;28;20037;-81
2022/03/05 04:28:48;;;;;;;86.10;32.22;;;;;;;;;;5065785;28;20047;-81
2022/03/05 04:31:14;;;;;;;79.78;29.88;;;;;;;;;;5047956;28;20079;-80
2022/03/05 04:33:40;;;;;;;88.60;31.70;;;;;;;;;;5065222;28;20037;-82
2022/03/05 04:36:06;;;;;;;89.43;30.67;;;;;;;;;;5065306;28;20059;-80
2022/03/05 04:38:32;;;;;;;80.20;31.02;;;;;;;;;;5065849;28;20036;-81
2022/03/05 04:40:58;;;;;;;86.65;30.35;;;;;;;;;;5085667;28;20043;-76
2022/03/05 04:43:24;;;;;;;85.32;30.92;;;;;;;;;;5060043;28;20051;-75
2022/03/05 04:45:50;;;;;;;74.88;28.95;;;;;;;;;;5059140;28;20044;-76
2022/03/05 04:48:16;;;;;;;82.45;31.63;;;;;;;;;;5064481;28;20067;-77
2022/03/05 04:50:45;;;;;;;84.15;31.33;;;;;;;;;;5070519;28;20040;-76
2022/03/05 04:53:11;;;;;;;88.25;31.65;;;;;;;;;;5060733;28;20036;-76
2022/03/05 04:55:37;;;;;;;91.57;31.30;;;;;;;;;;5076249;28;20119;-76
2022/03/05 04:58:03;;;;;;;91.63;33.28;;;;;;;;;;5058425;28;20365;-77
2022/03/05 05:00:29;;;;;;;79.70;30.23;;;;;;;;;;5058468;28;20056;-77
2022/03/05 05:02:55;;;;;;;88.10;32.53;;;;;;;;;;5042414;28;20526;-76
2022/03/05 05:05:21;;;;;;;91.18;32.10;;;;;;;;;;5058900;28;20086;-77
2022/03/05 05:07:47;;;;;;;95.57;31.52;;;;;;;;;;5043239;28;20098;-76
2022/03/05 05:10:13;;;;;;;85.88;31.95;;;;;;;;;;5042858;28;20123;-76
2022/03/05 05:12:39;;;;;;;82.82;31.20;;;;;;;;;;5060061;28;20124;-76
2022/03/05 05:15:06;;;;;;;82.22;31.02;;;;;;;;;;5064755;28;20071;-80
2022/03/05 05:17:35;;;;;;;82.80;30.60;;;;;;;;;;5069594;28;20365;-80
2022/03/05 05:20:02;;;;;;;84.90;31.75;;;;;;;;;;5059282;28;20109;-77
2022/03/05 05:22:29;;;;;;;90.55;34.30;;;;;;;;;;5067062;28;20114;-80
2022/03/05 05:24:55;;;;;;;85.55;31.25;;;;;;;;;;5071323;28;20048;-81
2022/03/05 05:27:21;;;;;;;91.20;33.00;;;;;;;;;;5068531;28;20055;-81
2022/03/05 05:29:47;;;;;;;80.35;30.42;;;;;;;;;;5069317;28;20192;-80
2022/03/05 05:32:14;;;;;;;79.43;31.08;;;;;;;;;;5062808;28;20119;-76
2022/03/05 05:34:41;;;;;;;85.60;31.15;;;;;;;;;;5057539;28;20479;-76
2022/03/05 05:37:07;;;;;;;86.78;33.42;;;;;;;;;;5041370;28;20040;-75
2022/03/05 05:39:33;;;;;;;83.32;32.28;;;;;;;;;;5076066;28;20044;-77
2022/03/05 05:41:59;;;;;;;87.07;31.98;;;;;;;;;;5041951;28;20029;-75
2022/03/05 05:44:25;;;;;;;110.63;39.97;;;;;;;;;;5040868;28;20047;-76
2022/03/05 05:46:51;;;;;;;94.00;37.83;;;;;;;;;;5058256;28;20040;-77
2022/03/05 05:49:17;;;;;;;102.60;39.85;;;;;;;;;;5058899;28;20448;-77
2022/03/05 05:51:43;;;;;;;107.82;41.55;;;;;;;;;;5042462;28;20044;-77
2022/03/05 05:54:09;;;;;;;85.40;34.55;;;;;;;;;;5058302;28;20439;-76
2022/03/05 05:56:35;;;;;;;92.28;35.85;;;;;;;;;;5041709;28;20040;-77
2022/03/05 05:59:01;;;;;;;85.18;33.83;;;;;;;;;;5058040;28;20036;-75
2022/03/05 06:01:27;;;;;;;97.47;38.58;;;;;;;;;;5061731;28;20067;-81
2022/03/05 06:03:53;;;;;;;94.13;36.17;;;;;;;;;;5045857;28;20052;-80
2022/03/05 06:06:20;;;;;;;101.63;38.80;;;;;;;;;;5062575;28;20049;-81
2022/03/05 06:08:46;;;;;;;101.93;39.13;;;;;;;;;;5062298;28;20457;-79
2022/03/05 06:11:12;;;;;;;98.60;38.60;;;;;;;;;;5045578;28;20040;-81
2022/03/05 06:13:38;;;;;;;113.57;45.47;;;;;;;;;;5062859;28;20041;-81
2022/03/05 06:16:04;;;;;;;146.43;56.15;;;;;;;;;;5062462;28;20074;-81
2022/03/05 06:18:30;;;;;;;358.58;120.85;;;;;;;;;;5062706;28;20436;-81
2022/03/05 06:20:56;;;;;;;228.43;76.47;;;;;;;;;;5063833;28;20047;-82
2022/03/05 06:23:23;;;;;;;167.52;64.05;;;;;;;;;;5063366;28;20119;-81
2022/03/05 06:25:49;;;;;;;137.70;50.40;;;;;;;;;;5064846;28;20098;-81
2022/03/05 06:28:15;;;;;;;119.53;46.42;;;;;;;;;;5069537;28;20040;-81
2022/03/05 06:30:41;;;;;;;104.38;41.33;;;;;;;;;;5071120;28;20040;-81
2022/03/05 06:33:07;;;;;;;100.82;39.78;;;;;;;;;;5071076;28;20055;-81
2022/03/05 06:35:33;;;;;;;88.43;34.53;;;;;;;;;;5066172;28;20055;-80
2022/03/05 06:37:59;;;;;;;85.45;32.55;;;;;;;;;;5049633;28;20376;-79
2022/03/05 06:40:25;;;;;;;84.80;30.60;;;;;;;;;;5064785;28;20040;-81
2022/03/05 06:42:51;;;;;;;79.22;30.67;;;;;;;;;;5063542;28;20373;-80
2022/03/05 06:45:17;;;;;;;75.68;29.67;;;;;;;;;;5080845;28;20063;-81
2022/03/05 06:47:43;;;;;;;72.30;29.88;;;;;;;;;;5065003;28;20096;-80
2022/03/05 06:50:10;;;;;;;72.50;28.40;;;;;;;;;;5082984;28;20075;-81
2022/03/05 06:52:36;;;;;;;82.85;30.85;;;;;;;;;;5065170;28;20040;-80
2022/03/05 06:55:03;;;;;;;83.07;30.95;;;;;;;;;;5049318;28;20087;-82
2022/03/05 06:57:29;;;;;;;78.30;30.55;;;;;;;;;;5049824;28;20475;-82
2022/03/05 06:59:55;;;;;;;79.40;28.83;;;;;;;;;;5061186;28;20052;-82
2022/03/05 07:02:21;;;;;;;74.57;30.67;;;;;;;;;;5067297;28;20051;-80
2022/03/05 07:04:47;;;;;;;76.38;30.95;;;;;;;;;;5053327;28;20136;-81
2022/03/05 07:07:13;;;;;;;65.97;27.70;;;;;;;;;;5075621;28;20036;-82
2022/03/05 07:09:39;;;;;;;83.57;30.98;;;;;;;;;;5079538;28;20096;-82
2022/03/05 07:12:06;;;;;;;74.65;29.90;;;;;;;;;;5083733;28;20052;-81
2022/03/05 07:14:32;;;;;;;85.30;29.80;;;;;;;;;;5055391;28;20048;-83
2022/03/05 07:16:58;;;;;;;79.47;28.65;;;;;;;;;;5049697;28;20161;-83
2022/03/05 07:19:24;;;;;;;76.47;31.17;;;;;;;;;;5049717;28;20460;-82
2022/03/05 07:21:50;;;;;;;77.97;32.03;;;;;;;;;;5068395;28;20051;-83
2022/03/05 07:24:23;;;;;;;72.90;30.58;;;;;;;;;;5053296;28;20222;-82
2022/03/05 07:26:49;;;;;;;81.25;31.33;;;;;;;;;;5085394;28;20032;-83
2022/03/05 07:29:15;;;;;;;76.28;29.80;;;;;;;;;;5066224;28;20051;-82
2022/03/05 07:31:41;;;;;;;73.88;29.95;;;;;;;;;;5084198;28;20032;-83
2022/03/05 07:34:07;;;;;;;75.45;29.90;;;;;;;;;;5049090;28;20036;-83
2022/03/05 07:36:33;;;;;;;74.75;28.15;;;;;;;;;;5065713;28;20048;-82
2022/03/05 07:38:59;;;;;;;68.45;29.70;;;;;;;;;;5053308;28;20033;-82
2022/03/05 07:41:25;;;;;;;71.57;29.70;;;;;;;;;;5052413;28;20112;-81
2022/03/05 07:43:51;;;;;;;67.47;28.67;;;;;;;;;;5086711;28;20028;-83
2022/03/05 07:46:17;;;;;;;75.72;29.55;;;;;;;;;;5066265;28;20064;-80
2022/03/05 07:48:43;;;;;;;71.38;29.10;;;;;;;;;;5064550;28;20037;-80
2022/03/05 07:51:09;;;;;;;68.03;28.30;;;;;;;;;;5050032;28;20045;-81
2022/03/05 07:53:35;;;;;;;68.45;28.67;;;;;;;;;;5067002;28;20448;-81
2022/03/05 07:56:01;;;;;;;69.63;27.90;;;;;;;;;;5048714;28;20048;-79
2022/03/05 07:58:27;;;;;;;67.28;28.08;;;;;;;;;;5049299;28;20036;-79
2022/03/05 08:00:53;;;;;;;66.10;28.30;;;;;;;;;;5066639;28;20097;-79
2022/03/05 08:03:19;;;;;;;64.55;27.15;;;;;;;;;;5055535;28;20068;-79
2022/03/05 08:05:47;;;;;;;65.93;27.58;;;;;;;;;;5081661;28;20075;-80
2022/03/05 08:08:13;;;;;;;64.30;27.70;;;;;;;;;;5075166;28;20044;-81
2022/03/05 08:10:39;;;;;;;64.57;27.48;;;;;;;;;;5045914;28;20051;-78
2022/03/05 08:13:05;;;;;;;61.60;27.05;;;;;;;;;;5045243;28;20037;-79
2022/03/05 08:15:31;;;;;;;60.45;27.27;;;;;;;;;;5046285;28;20048;-80
2022/03/05 08:17:58;;;;;;;60.25;27.23;;;;;;;;;;5063371;28;20365;-80
2022/03/05 08:20:25;;;;;;;63.95;26.35;;;;;;;;;;5046524;28;20033;-80
2022/03/05 08:22:51;;;;;;;64.45;26.67;;;;;;;;;;5045489;28;20036;-79
2022/03/05 08:25:17;;;;;;;58.95;27.20;;;;;;;;;;5046421;28;20040;-79
2022/03/05 08:27:43;;;;;;;58.80;26.55;;;;;;;;;;5047061;28;20043;-79
2022/03/05 08:30:09;;;;;;;59.00;27.08;;;;;;;;;;5046381;28;20119;-79
2022/03/05 08:32:35;;;;;;;59.30;26.95;;;;;;;;;;5061139;28;20112;-79
2022/03/05 08:35:02;;;;;;;58.05;27.15;;;;;;;;;;5062226;28;20040;-78
2022/03/05 08:37:28;;;;;;;53.38;25.73;;;;;;;;;;5045403;28;20040;-79
2022/03/05 08:39:54;;;;;;;55.42;25.73;;;;;;;;;;5066910;28;20051;-78
2022/03/05 08:42:20;;;;;;;53.97;25.00;;;;;;;;;;5055795;28;20075;-78
2022/03/05 08:44:46;;;;;;;54.15;23.55;;;;;;;;;;5070004;28;20122;-78
2022/03/05 08:47:12;;;;;;;48.38;24.25;;;;;;;;;;5048638;28;20072;-79
2022/03/05 08:49:38;;;;;;;53.97;24.95;;;;;;;;;;5061504;28;20097;-80
2022/03/05 08:52:04;;;;;;;46.58;21.20;;;;;;;;;;5044769;28;20040;-79
2022/03/05 08:54:31;;;;;;;46.58;23.67;;;;;;;;;;5045095;28;20036;-80
2022/03/05 08:56:57;;;;;;;53.75;23.92;;;;;;;;;;5061825;28;20048;-80
2022/03/05 08:59:22;;;;;;;49.90;22.80;;;;;;;;;;5046467;28;20090;-80
2022/03/05 09:01:48;;;;;;;42.35;21.75;;;;;;;;;;5044595;28;20094;-79
2022/03/05 09:04:14;;;;;;;45.60;22.08;;;;;;;;;;5062025;28;20048;-79
2022/03/05 09:06:41;;;;;;;45.22;22.58;;;;;;;;;;5044462;28;20111;-79
2022/03/05 09:09:07;;;;;;;42.03;21.73;;;;;;;;;;5061342;28;20532;-80
2022/03/05 09:11:37;;;;;;;45.17;21.60;;;;;;;;;;5049752;28;20043;-79
2022/03/05 09:14:03;;;;;;;44.30;21.27;;;;;;;;;;5065111;28;20452;-79
2022/03/05 09:16:29;;;;;;;42.28;20.65;;;;;;;;;;5062995;28;20040;-79
2022/03/05 09:18:55;;;;;;;43.65;20.27;;;;;;;;;;5062005;28;20036;-79
2022/03/05 09:21:21;;;;;;;46.08;22.02;;;;;;;;;;5061377;28;20032;-78
2022/03/05 09:23:50;;;;;;;41.70;20.48;;;;;;;;;;5061924;28;20435;-80
2022/03/05 09:26:16;;;;;;;49.42;21.98;;;;;;;;;;5062249;28;20359;-79
2022/03/05 09:28:42;;;;;;;41.08;22.05;;;;;;;;;;5045513;28;20135;-78
2022/03/05 09:31:08;;;;;;;44.53;21.90;;;;;;;;;;5062018;28;20119;-80
2022/03/05 09:33:34;;;;;;;45.42;21.95;;;;;;;;;;5061058;28;20036;-78
2022/03/05 09:36:00;;;;;;;47.13;22.60;;;;;;;;;;5045439;28;20063;-80
2022/03/05 09:38:26;;;;;;;39.28;20.80;;;;;;;;;;5079108;28;20451;-80
2022/03/05 09:40:52;;;;;;;42.30;21.38;;;;;;;;;;5062049;28;20059;-79
2022/03/05 09:43:18;;;;;;;39.97;20.58;;;;;;;;;;5044665;28;20435;-79
2022/03/05 09:45:44;;;;;;;41.17;20.27;;;;;;;;;;5044376;28;20135;-79
2022/03/05 09:48:11;;;;;;;59.05;22.27;;;;;;;;;;5044960;28;20064;-80
2022/03/05 09:50:37;;;;;;;45.33;21.58;;;;;;;;;;5048060;28;20076;-79
2022/03/05 09:53:03;;;;;;;42.28;21.08;;;;;;;;;;5062875;28;20052;-80
2022/03/05 09:55:30;;;;;;;40.45;20.92;;;;;;;;;;5045261;28;20059;-80
2022/03/05 09:57:56;;;;;;;39.75;19.80;;;;;;;;;;5061009;28;20095;-81
2022/03/05 10:00:22;;;;;;;34.88;19.08;;;;;;;;;;5044201;28;20041;-81
2022/03/05 10:02:48;;;;;;;35.72;18.17;;;;;;;;;;5045094;28;20507;-81
2022/03/05 10:05:14;;;;;;;34.83;18.05;;;;;;;;;;5064150;28;20091;-80
2022/03/05 10:07:49;;;;;;;31.92;16.83;;;;;;;;;;5042562;28;20032;-80
2022/03/05 10:10:15;;;;;;;30.17;16.10;;;;;;;;;;5059239;28;20041;-80
2022/03/05 10:12:41;;;;;;;32.42;16.85;;;;;;;;;;5058542;28;20041;-80
2022/03/05 10:15:07;;;;;;;31.95;16.10;;;;;;;;;;5040508;28;20043;-80
2022/03/05 10:17:52;;;;;;;35.00;17.23;;;;;;;;;;5057305;28;20056;-80
2022/03/05 10:20:19;;;;;;;32.38;16.35;;;;;;;;;;5040674;28;20041;-80
2022/03/05 10:22:55;;;;;;;30.52;17.05;;;;;;;;;;5058481;28;20064;-80
2022/03/05 10:25:38;;;;;;;30.50;16.58;;;;;;;;;;5060572;28;20110;-80
2022/03/05 10:28:08;;;;;;;30.15;16.52;;;;;;;;;;5041871;28;20194;-80
2022/03/05 10:30:35;;;;;;;29.35;15.68;;;;;;;;;;5040331;28;20052;-81
2022/03/05 10:33:01;;;;;;;32.95;16.27;;;;;;;;;;5057230;28;20061;-80
2022/03/05 10:35:27;;;;;;;29.35;15.68;;;;;;;;;;5057840;28;20056;-80
2022/03/05 10:37:53;;;;;;;29.73;16.13;;;;;;;;;;5058314;28;20041;-79
2022/03/05 10:40:35;;;;;;;26.08;15.57;;;;;;;;;;5058786;28;20037;-80
2022/03/05 10:43:02;;;;;;;31.23;16.20;;;;;;;;;;5059909;28;20088;-79
2022/03/05 10:45:29;;;;;;;29.05;15.07;;;;;;;;;;5040192;28;20055;-81
2022/03/05 10:47:55;;;;;;;25.25;14.68;;;;;;;;;;5056573;28;20040;-81
2022/03/05 10:50:21;;;;;;;25.25;13.98;;;;;;;;;;5040567;28;20046;-82
2022/03/05 10:52:51;;;;;;;28.02;15.18;;;;;;;;;;5058986;28;20051;-82
2022/03/05 10:55:18;;;;;;;27.23;14.57;;;;;;;;;;5058496;28;20547;-80
2022/03/05 10:57:56;;;;;;;26.00;14.25;;;;;;;;;;5064531;28;20114;-82
2022/03/05 11:00:22;;;;;;;27.83;14.48;;;;;;;;;;5058757;28;20037;-81
2022/03/05 11:02:49;;;;;;;26.55;15.18;;;;;;;;;;5058096;28;20037;-80
2022/03/05 11:05:15;;;;;;;30.95;15.35;;;;;;;;;;5058857;28;20040;-82
2022/03/05 11:07:41;;;;;;;26.25;14.93;;;;;;;;;;5059167;28;20066;-81
2022/03/05 11:10:07;;;;;;;28.58;15.73;;;;;;;;;;5061434;28;20420;-80
2022/03/05 11:12:34;;;;;;;29.65;15.93;;;;;;;;;;5063503;28;20041;-80
2022/03/05 11:15:00;;;;;;;29.25;15.43;;;;;;;;;;5049392;28;20120;-81
2022/03/05 11:17:26;;;;;;;30.30;16.40;;;;;;;;;;5050701;28;20066;-81
2022/03/05 11:19:52;;;;;;;28.05;15.20;;;;;;;;;;5063206;28;20064;-81
2022/03/05 11:22:18;;;;;;;26.65;15.82;;;;;;;;;;5047944;28;20433;-81
2022/03/05 11:24:44;;;;;;;28.15;14.95;;;;;;;;;;5064063;28;20041;-80
2022/03/05 11:27:14;;;;;;;27.55;15.15;;;;;;;;;;5081030;28;20049;-77
2022/03/05 11:29:56;;;;;;;33.40;17.02;;;;;;;;;;5064277;28;20060;-80
2022/03/05 11:32:22;;;;;;;30.98;16.52;;;;;;;;;;5063523;28;20045;-81
2022/03/05 11:34:49;;;;;;;30.00;16.17;;;;;;;;;;5044471;28;20076;-80
2022/03/05 11:37:25;;;;;;;24.75;14.90;;;;;;;;;;5060484;28;20448;-79
2022/03/05 11:39:51;;;;;;;29.92;15.30;;;;;;;;;;5060217;28;20110;-80
2022/03/05 11:42:30;;;;;;;28.42;15.43;;;;;;;;;;5044233;28;20037;-80
2022/03/05 11:44:56;;;;;;;25.95;14.70;;;;;;;;;;5060751;28;20442;-80
2022/03/05 11:47:23;;;;;;;30.58;15.18;;;;;;;;;;5045409;28;20377;-81
2022/03/05 11:49:58;;;;;;;24.15;14.48;;;;;;;;;;5049039;28;20045;-79
2022/03/05 11:52:43;;;;;;;25.88;14.52;;;;;;;;;;5063442;28;20056;-81
2022/03/05 11:55:15;;;;;;;26.60;14.55;;;;;;;;;;5061352;28;20041;-80
2022/03/05 11:58:04;;;;;;;27.65;14.88;;;;;;;;;;5062108;28;20055;-80
2022/03/05 12:00:33;;;;;;;24.00;13.93;;;;;;;;;;5061541;28;20045;-81
2022/03/05 12:03:00;;;;;;;26.50;14.48;;;;;;;;;;5045926;28;20040;-79
2022/03/05 12:05:38;;;;;;;26.50;14.63;;;;;;;;;;5061715;28;20037;-79
2022/03/05 12:08:08;;;;;;;23.88;13.65;;;;;;;;;;5062286;28;20431;-81
2022/03/05 12:10:34;;;;;;;24.67;14.43;;;;;;;;;;5061238;28;20037;-80
2022/03/05 12:13:01;;;;;;;26.35;14.63;;;;;;;;;;5062581;28;20044;-82
2022/03/05 12:15:33;;;;;;;24.48;14.10;;;;;;;;;;5061650;28;20040;-80
2022/03/05 12:18:02;;;;;;;24.95;14.40;;;;;;;;;;5061490;28;20048;-81
2022/03/05 12:20:34;;;;;;;27.02;14.77;;;;;;;;;;5061041;28;20048;-81
2022/03/05 12:23:01;;;;;;;27.25;14.90;;;;;;;;;;5060482;28;20114;-80
2022/03/05 12:25:36;;;;;;;23.40;14.25;;;;;;;;;;5061897;28;20092;-81
2022/03/05 12:28:03;;;;;;;25.88;14.45;;;;;;;;;;5065456;28;20037;-79
2022/03/05 12:30:32;;;;;;;25.27;14.23;;;;;;;;;;5043321;28;20103;-79
2022/03/05 12:33:01;;;;;;;24.85;13.52;;;;;;;;;;5061844;28;20045;-79
2022/03/05 12:35:27;;;;;;;24.45;13.90;;;;;;;;;;5046017;28;20041;-78
2022/03/05 12:37:53;;;;;;;23.80;13.38;;;;;;;;;;5045805;28;20128;-78
2022/03/05 12:40:19;;;;;;;25.25;14.07;;;;;;;;;;5061838;28;20052;-79
2022/03/05 12:42:46;;;;;;;25.90;13.48;;;;;;;;;;5061534;28;20440;-78
2022/03/05 12:45:20;;;;;;;24.50;14.45;;;;;;;;;;5061733;28;20171;-79
2022/03/05 12:47:46;;;;;;;28.10;14.60;;;;;;;;;;5046877;28;20041;-78
2022/03/05 12:50:22;;;;;;;24.98;13.68;;;;;;;;;;5060982;28;20048;-78
2022/03/05 12:52:55;;;;;;;23.25;13.10;;;;;;;;;;5043682;28;20491;-78
2022/03/05 12:55:21;;;;;;;21.95;12.07;;;;;;;;;;5046713;28;20041;-79
2022/03/05 12:57:47;;;;;;;21.13;12.15;;;;;;;;;;5045552;28;20055;-79
2022/03/05 13:00:13;;;;;;;22.35;12.10;;;;;;;;;;5044219;28;20112;-79
2022/03/05 13:02:40;;;;;;;23.10;12.45;;;;;;;;;;5045678;28;20059;-79
2022/03/05 13:05:13;;;;;;;22.38;12.20;;;;;;;;;;5046267;28;20068;-78
2022/03/05 13:07:39;;;;;;;19.98;12.38;;;;;;;;;;5044148;28;20045;-79
2022/03/05 13:10:08;;;;;;;19.05;11.80;;;;;;;;;;5060239;28;20053;-81
2022/03/05 13:12:35;;;;;;;19.52;11.85;;;;;;;;;;5061462;28;20450;-78
2022/03/05 13:15:01;;;;;;;21.48;12.05;;;;;;;;;;5058487;28;20053;-80
2022/03/05 13:17:27;;;;;;;18.52;11.82;;;;;;;;;;5041250;28;20373;-80
2022/03/05 13:20:00;;;;;;;22.63;12.43;;;;;;;;;;5058036;28;20032;-79
2022/03/05 13:22:26;;;;;;;21.27;11.95;;;;;;;;;;5036673;28;20029;-79
2022/03/05 13:24:52;;;;;;;19.23;12.07;;;;;;;;;;5046754;28;20100;-79
2022/03/05 13:27:27;;;;;;;20.88;11.70;;;;;;;;;;5031561;28;20473;-80
2022/03/05 13:29:54;;;;;;;18.80;11.63;;;;;;;;;;5044709;28;20037;-79
2022/03/05 13:32:24;;;;;;;21.25;11.35;;;;;;;;;;5058638;28;20040;-80
2022/03/05 13:35:01;;;;;;;18.35;11.00;;;;;;;;;;5041719;28;20440;-80
2022/03/05 13:37:27;;;;;;;22.05;11.30;;;;;;;;;;5058681;28;20381;-80
2022/03/05 13:39:53;;;;;;;22.27;12.18;;;;;;;;;;5058095;28;20037;-79
2022/03/05 13:42:19;;;;;;;20.20;12.23;;;;;;;;;;5058600;28;20040;-79
2022/03/05 13:44:45;;;;;;;21.23;12.32;;;;;;;;;;5062327;28;20435;-80
2022/03/05 13:47:11;;;;;;;18.73;11.25;;;;;;;;;;5044835;28;20467;-80
2022/03/05 13:49:39;;;;;;;19.52;11.45;;;;;;;;;;5062700;28;20052;-79
2022/03/05 13:52:06;;;;;;;19.65;11.35;;;;;;;;;;5046120;28;20040;-80
2022/03/05 13:54:33;;;;;;;20.10;11.80;;;;;;;;;;5062254;28;20387;-79
2022/03/05 13:56:59;;;;;;;20.33;12.05;;;;;;;;;;5080213;28;20043;-80
2022/03/05 13:59:42;;;;;;;22.88;12.65;;;;;;;;;;5047281;28;20041;-80
2022/03/05 14:02:08;;;;;;;20.05;11.95;;;;;;;;;;5045898;28;20460;-78
2022/03/05 14:04:34;;;;;;;17.75;11.32;;;;;;;;;;5062425;28;20032;-79
2022/03/05 14:07:03;;;;;;;22.35;12.13;;;;;;;;;;5062165;28;20693;-79
2022/03/05 14:09:32;;;;;;;21.30;12.02;;;;;;;;;;5045597;28;20037;-80
2022/03/05 14:12:05;;;;;;;20.10;11.45;;;;;;;;;;5062177;28;20423;-81
2022/03/05 14:14:35;;;;;;;20.25;11.98;;;;;;;;;;5082812;28;20165;-80
2022/03/05 14:17:01;;;;;;;21.27;12.27;;;;;;;;;;5047600;28;20075;-81